Time;durP1;ratioP1;P1;durP2;ratioP2;P2;SDS_P1;SDS_P2;PMS_P1;PMS_P2;Temp;Humidity;BMP_temperature;BMP_pressure;BME280_temperature;BME280_humidity;BME280_pressure;Samples;Min_cycle;Max_cycle;Signal;HPM_P1;HPM_P2
2022/10/05 00:01:55;;;;;;;11.03;3.37;;;;;;;10.06;78.78;150181.94;1694183;83;21120;-78
2022/10/05 00:04:23;;;;;;;8.45;3.25;;;;;;;10.04;78.70;150178.08;1698037;82;21104;-78
2022/10/05 00:07:01;;;;;;;8.53;3.50;;;;;;;10.02;78.79;150172.89;1699785;82;21080;-77
2022/10/05 00:09:30;;;;;;;8.90;2.87;;;;;;;10.03;78.82;150176.75;1704417;81;21096;-76
2022/10/05 00:11:57;;;;;;;4.65;2.80;;;;;;;10.03;78.75;150176.75;1693299;82;21060;-77
2022/10/05 00:14:30;;;;;;;12.80;4.10;;;;;;;10.04;78.80;150179.34;1696661;82;21296;-77
2022/10/05 00:16:57;;;;;;;5.12;3.05;;;;;;;10.05;78.79;150180.67;1719756;82;21347;-78
2022/10/05 00:19:37;;;;;;;9.15;3.20;;;;;;;10.05;78.76;150180.67;1723342;82;21128;-78
2022/10/05 00:22:19;;;;;;;8.38;2.90;;;;;;;10.02;78.72;150174.17;1710515;82;21024;-78
2022/10/05 00:24:48;;;;;;;6.75;2.95;;;;;;;10.00;78.68;150167.72;1700751;82;21103;-77
2022/10/05 00:27:32;;;;;;;6.83;2.98;;;;;;;9.96;78.79;150158.61;1701213;82;21775;-78
2022/10/05 00:30:01;;;;;;;7.35;2.80;;;;;;;9.94;79.07;150153.44;1695604;82;21022;-77
2022/10/05 00:32:29;;;;;;;8.03;3.05;;;;;;;9.91;79.33;150145.66;1647317;82;21047;-76
2022/10/05 00:34:56;;;;;;;9.33;3.40;;;;;;;9.91;79.29;150145.66;1700881;82;21024;-77
2022/10/05 00:37:23;;;;;;;4.08;2.70;;;;;;;9.91;79.35;150145.66;1705385;82;21140;-77
2022/10/05 00:39:50;;;;;;;5.90;2.60;;;;;;;9.91;79.33;150145.66;1693410;82;21296;-77
2022/10/05 00:43:10;;;;;;;7.12;3.00;;;;;;;9.93;79.32;150150.84;1693661;82;21045;-78
2022/10/05 00:45:41;;;;;;;9.93;2.83;;;;;;;9.94;79.49;150153.44;1705028;82;21077;-77
2022/10/05 00:48:31;;;;;;;5.35;2.95;;;;;;;9.95;79.72;150156.03;1698256;82;21061;-78
2022/10/05 00:51:22;;;;;;;8.30;3.45;;;;;;;9.96;79.71;150157.34;1699651;82;21033;-76
2022/10/05 00:54:11;;;;;;;5.45;2.98;;;;;;;9.96;79.78;150158.61;1682072;83;21230;-75
2022/10/05 00:56:59;;;;;;;15.30;4.42;;;;;;;9.96;79.92;150158.61;1704332;82;21105;-77
2022/10/05 00:59:40;;;;;;;5.20;3.02;;;;;;;9.95;80.01;150156.03;1698346;82;21060;-60
2022/10/05 01:02:18;;;;;;;20.35;4.45;;;;;;;9.96;80.09;150158.61;1715312;82;21062;-59
2022/10/05 01:05:05;;;;;;;8.68;2.80;;;;;;;9.96;80.22;150158.61;1703516;81;21056;-60
2022/10/05 01:07:53;;;;;;;10.78;3.33;;;;;;;9.97;80.35;150161.20;1701206;82;21242;-59
2022/10/05 01:10:31;;;;;;;6.80;2.80;;;;;;;9.98;80.56;150163.80;1708735;82;21028;-76
2022/10/05 01:13:31;;;;;;;6.55;3.10;;;;;;;9.99;80.56;150166.39;1693215;82;21034;-59
2022/10/05 01:16:30;;;;;;;5.92;2.70;;;;;;;9.99;80.60;150165.12;1692329;82;21077;-59
2022/10/05 01:19:20;;;;;;;6.40;3.20;;;;;;;9.98;80.48;150162.53;1684672;82;21081;-60
2022/10/05 01:21:58;;;;;;;5.17;3.10;;;;;;;9.97;80.37;150161.20;1698313;82;21522;-76
2022/10/05 01:24:43;;;;;;;4.78;2.90;;;;;;;9.95;80.40;150156.03;1698609;81;21033;-76
2022/10/05 01:27:37;;;;;;;8.00;3.15;;;;;;;9.94;80.41;150153.44;1699850;82;21054;-77
2022/10/05 01:30:09;;;;;;;5.65;3.02;;;;;;;9.93;80.76;150150.84;1710028;82;21958;-79
2022/10/05 01:32:51;;;;;;;4.90;3.00;;;;;;;9.92;80.86;150146.92;1705662;82;21092;-78
2022/10/05 01:35:33;;;;;;;7.12;3.62;;;;;;;9.92;81.28;150146.92;1714305;81;21259;-78
2022/10/05 01:38:33;;;;;;;11.22;3.55;;;;;;;9.91;81.54;150145.66;1718811;80;21086;-60
2022/10/05 01:41:18;;;;;;;12.15;3.47;;;;;;;9.94;81.61;150153.44;1753312;81;21055;-60
2022/10/05 01:44:12;;;;;;;8.20;4.37;;;;;;;9.99;81.71;150166.39;1752795;81;21079;-60
2022/10/05 01:47:22;;;;;;;13.13;4.05;;;;;;;10.04;82.06;150179.34;1753323;80;21035;-59
2022/10/05 01:50:06;;;;;;;9.95;3.72;;;;;;;10.10;81.97;150193.63;1718608;81;21873;-61
2022/10/05 01:52:51;;;;;;;6.72;4.17;;;;;;;10.16;81.86;150207.91;1752111;80;21071;-61
2022/10/05 01:55:42;;;;;;;7.10;3.90;;;;;;;10.18;81.78;150213.09;1752935;80;21067;-59
2022/10/05 01:58:42;;;;;;;8.30;3.05;;;;;;;10.19;81.86;150215.69;1726134;81;21059;-60
2022/10/05 02:01:37;;;;;;;6.17;3.77;;;;;;;10.19;81.85;150215.69;1716332;81;21066;-60
2022/10/05 02:04:14;;;;;;;8.15;3.17;;;;;;;10.19;81.86;150215.69;1753381;80;21245;-59
2022/10/05 02:06:42;;;;;;;5.15;3.20;;;;;;;10.18;81.85;150213.09;1752156;80;21036;-59
2022/10/05 02:09:25;;;;;;;6.78;3.15;;;;;;;10.17;81.87;150210.50;1718035;81;21060;-59
2022/10/05 02:12:10;;;;;;;4.75;2.95;;;;;;;10.16;81.99;150207.91;1714565;81;21040;-59
2022/10/05 02:14:45;;;;;;;6.03;3.37;;;;;;;10.17;81.97;150210.50;1712829;81;21088;-60
2022/10/05 02:17:23;;;;;;;6.83;3.65;;;;;;;10.18;82.15;150214.42;1713336;81;21246;-60
2022/10/05 02:19:55;;;;;;;5.08;3.10;;;;;;;10.18;82.11;150213.09;1714546;81;21077;-59
2022/10/05 02:22:33;;;;;;;6.15;3.25;;;;;;;10.21;82.27;150220.88;1696205;83;21074;-60
2022/10/05 02:25:04;;;;;;;5.67;3.20;;;;;;;10.22;82.50;150222.19;1713412;81;20995;-60
2022/10/05 02:27:35;;;;;;;10.23;3.45;;;;;;;10.23;82.55;150226.06;1716716;81;21106;-60
2022/10/05 02:30:06;;;;;;;7.30;3.60;;;;;;;10.26;82.81;150233.84;1717236;81;21159;-60
2022/10/05 02:32:41;;;;;;;5.50;3.27;;;;;;;10.28;83.26;150239.08;1737522;81;21011;-60
2022/10/05 02:35:15;;;;;;;8.35;3.60;;;;;;;10.29;83.68;150241.66;1748978;80;21564;-60
2022/10/05 02:38:11;;;;;;;10.60;3.87;;;;;;;10.30;84.00;150244.25;1753467;80;21085;-59
2022/10/05 02:40:57;;;;;;;8.80;3.33;;;;;;;10.31;84.20;150246.84;1704264;81;21053;-61
2022/10/05 02:43:47;;;;;;;;;;;;;;;10.32;84.46;150249.44;1702584;82;21245;-59
2022/10/05 02:46:56;;;;;;;8.85;3.77;;;;;;;10.32;84.59;150249.44;1696143;82;20452;-60
2022/10/05 02:49:47;;;;;;;5.40;3.55;;;;;;;10.32;84.74;150249.44;1625361;87;21593;-61
2022/10/05 02:52:35;;;;;;;6.45;3.77;;;;;;;10.34;85.02;150252.03;1629497;86;21071;-60
2022/10/05 02:55:23;;;;;;;6.22;3.67;;;;;;;10.33;85.28;150250.72;1677006;82;21065;-59
2022/10/05 02:58:01;;;;;;;9.10;3.92;;;;;;;10.30;85.47;150244.25;1692354;82;21245;-60
2022/10/05 03:00:33;;;;;;;6.30;3.30;;;;;;;10.31;85.81;150246.84;1694671;82;21148;-59
2022/10/05 03:03:11;;;;;;;9.73;3.87;;;;;;;10.32;85.97;150249.44;1690280;82;21034;-60
2022/10/05 03:05:54;;;;;;;5.33;3.50;;;;;;;10.34;86.04;150253.31;1695281;82;21101;-60
2022/10/05 03:09:04;;;;;;;7.28;3.33;;;;;;;10.37;86.17;150259.81;1709004;82;21465;-60
2022/10/05 03:11:47;;;;;;;8.18;3.55;;;;;;;10.41;86.30;150270.23;1693795;82;21090;-59
2022/10/05 03:14:42;;;;;;;11.57;4.15;;;;;;;10.46;86.38;150283.19;1695352;82;20938;-59
2022/10/05 03:17:21;;;;;;;6.85;3.50;;;;;;;10.50;86.68;150293.61;1716596;82;21100;-60
2022/10/05 03:20:13;;;;;;;9.75;3.95;;;;;;;10.54;86.73;150302.66;1720833;82;21036;-59
2022/10/05 03:22:51;;;;;;;8.60;3.95;;;;;;;10.56;86.81;150307.86;1698154;82;21665;-59
2022/10/05 03:25:26;;;;;;;6.22;3.15;;;;;;;10.55;86.83;150306.58;1713782;82;21266;-59
2022/10/05 03:28:15;;;;;;;6.35;3.62;;;;;;;10.55;86.89;150306.58;1692865;83;21525;-62
2022/10/05 03:30:56;;;;;;;9.35;4.33;;;;;;;10.56;87.00;150309.17;1713059;82;21585;-59
2022/10/05 03:33:49;;;;;;;7.87;3.65;;;;;;;10.56;86.99;150309.17;1689011;82;21104;-59
2022/10/05 03:36:39;;;;;;;5.72;3.55;;;;;;;10.57;87.02;150311.77;1699847;82;21072;-60
2022/10/05 03:39:31;;;;;;;11.50;3.65;;;;;;;10.57;87.16;150310.44;1703531;82;21144;-59
2022/10/05 03:42:24;;;;;;;14.20;3.58;;;;;;;10.56;87.27;150309.17;1703681;82;21063;-60
2022/10/05 03:44:58;;;;;;;8.90;3.65;;;;;;;10.56;87.41;150309.17;1700478;82;21136;-61
2022/10/05 03:47:53;;;;;;;5.97;3.37;;;;;;;10.55;87.57;150305.25;1693440;82;22129;-60
2022/10/05 03:50:25;;;;;;;9.63;3.53;;;;;;;10.55;87.73;150306.58;1700704;82;21060;-61
2022/10/05 03:53:02;;;;;;;5.37;3.45;;;;;;;10.53;87.98;150301.39;1697441;82;21148;-60
2022/10/05 03:56:07;;;;;;;6.03;3.33;;;;;;;10.50;88.21;150293.61;1695532;82;22191;-60
2022/10/05 03:58:57;;;;;;;6.08;3.25;;;;;;;10.49;88.37;150289.70;1655898;86;21548;-60
2022/10/05 04:01:32;;;;;;;10.93;3.35;;;;;;;10.47;88.62;150285.78;1635093;86;21118;-78
2022/10/05 04:03:59;;;;;;;;;;;;;;;10.48;88.85;150287.11;1657011;85;21109;-78
2022/10/05 04:06:32;;;;;;;5.80;3.45;;;;;;;10.48;89.16;150287.11;1682665;85;21282;-77
2022/10/05 04:09:19;;;;;;;8.23;3.42;;;;;;;10.46;89.40;150283.19;1714429;82;21101;-76
2022/10/05 04:11:58;;;;;;;5.17;3.22;;;;;;;10.49;89.59;150289.70;1697475;82;21705;-76
2022/10/05 04:14:45;;;;;;;4.37;3.15;;;;;;;10.51;89.90;150296.20;1705623;82;21229;-77
2022/10/05 04:17:15;;;;;;;8.23;3.35;;;;;;;10.53;90.11;150301.39;1708787;82;20965;-77
2022/10/05 04:20:04;;;;;;;6.80;3.50;;;;;;;10.56;90.34;150307.86;1704732;82;21836;-76
2022/10/05 04:22:39;;;;;;;9.25;3.47;;;;;;;10.61;90.51;150320.88;1694840;82;21115;-78
2022/10/05 04:25:20;;;;;;;6.95;3.22;;;;;;;10.68;90.63;150337.70;1695428;82;21061;-78
2022/10/05 04:28:19;;;;;;;6.35;3.50;;;;;;;10.74;90.62;150353.31;1700749;82;21065;-77
2022/10/05 04:30:48;;;;;;;5.28;3.40;;;;;;;10.80;90.49;150368.87;1695077;82;21064;-79
2022/10/05 04:33:16;;;;;;;4.97;3.17;;;;;;;10.83;90.42;150376.66;1657873;82;22073;-78
2022/10/05 04:36:01;;;;;;;9.08;3.45;;;;;;;10.85;90.38;150381.84;1699729;82;21670;-58
2022/10/05 04:38:52;;;;;;;6.72;3.80;;;;;;;10.86;90.35;150383.16;1699547;82;21125;-59
2022/10/05 04:41:56;;;;;;;8.48;3.58;;;;;;;10.87;90.37;150387.02;1707982;82;21100;-59
2022/10/05 04:44:47;;;;;;;6.80;3.72;;;;;;;10.88;90.31;150389.63;1719453;82;21013;-60
2022/10/05 04:47:43;;;;;;;7.25;3.65;;;;;;;10.90;90.31;150393.53;1713163;82;21207;-60
2022/10/05 04:50:49;;;;;;;;;;;;;;;10.92;90.27;150397.41;1711151;82;21136;-61
2022/10/05 04:53:25;;;;;;;4.90;3.42;;;;;;;10.95;90.20;150405.22;1702256;82;20174;-60
2022/10/05 04:56:20;;;;;;;10.05;3.72;;;;;;;10.95;90.22;150406.50;1703313;82;21152;-59
2022/10/05 04:59:11;;;;;;;6.55;3.40;;;;;;;10.95;90.28;150405.22;1715182;81;21064;-60
2022/10/05 05:02:05;;;;;;;7.15;3.62;;;;;;;10.95;90.41;150405.22;1668081;84;21354;-77
2022/10/05 05:05:07;;;;;;;5.40;3.25;;;;;;;10.95;90.55;150405.22;1701626;82;21100;-77
2022/10/05 05:07:59;;;;;;;5.15;2.95;;;;;;;10.95;90.62;150405.22;1700857;84;21005;-78
2022/10/05 05:10:47;;;;;;;6.75;3.12;;;;;;;10.97;90.68;150411.69;1717118;82;21031;-78
2022/10/05 05:13:25;;;;;;;10.75;4.03;;;;;;;10.97;90.64;150410.42;1728335;81;22105;-77
2022/10/05 05:16:14;;;;;;;7.65;4.15;;;;;;;10.98;90.65;150413.00;1712859;82;21210;-77
2022/10/05 05:18:46;;;;;;;11.80;3.92;;;;;;;10.98;90.60;150413.00;1688420;82;21041;-76
2022/10/05 05:21:45;;;;;;;9.58;4.30;;;;;;;10.97;90.72;150410.42;1713833;82;21411;-77
2022/10/05 05:24:32;;;;;;;16.93;4.30;;;;;;;10.95;90.76;150406.50;1717057;82;21084;-77
2022/10/05 05:27:22;;;;;;;9.45;3.75;;;;;;;10.94;90.84;150402.58;1710274;82;21552;-60
2022/10/05 05:30:17;;;;;;;9.60;4.45;;;;;;;10.94;90.95;150402.58;1698607;82;21262;-61
2022/10/05 05:33:12;;;;;;;8.30;4.33;;;;;;;10.91;91.08;150394.80;1721969;82;21043;-60
2022/10/05 05:36:06;;;;;;;6.12;3.80;;;;;;;10.91;91.14;150394.80;1705396;82;21089;-59
2022/10/05 05:39:03;;;;;;;7.97;4.12;;;;;;;10.92;91.11;150398.72;1713548;82;21064;-61
2022/10/05 05:42:02;;;;;;;11.20;5.00;;;;;;;10.93;91.23;150400.00;1702244;82;21338;-60
2022/10/05 05:44:48;;;;;;;10.55;5.22;;;;;;;10.87;91.42;150387.02;1701651;82;21228;-60
2022/10/05 05:47:19;;;;;;;8.73;4.08;;;;;;;10.88;91.63;150388.34;1712342;82;21049;-60
2022/10/05 05:50:14;;;;;;;10.28;4.33;;;;;;;10.84;91.75;150379.23;1707589;82;21602;-60
2022/10/05 05:52:45;;;;;;;14.50;4.33;;;;;;;10.83;91.91;150375.33;1718442;81;21081;-61
2022/10/05 05:55:25;;;;;;;13.38;4.35;;;;;;;10.83;92.04;150375.33;1710413;82;21104;-60
2022/10/05 05:57:58;;;;;;;9.00;4.60;;;;;;;10.84;92.15;150377.97;1703850;82;21588;-59
2022/10/05 06:00:36;;;;;;;13.90;5.37;;;;;;;10.84;92.21;150379.23;1706851;82;21640;-60
2022/10/05 06:03:17;;;;;;;10.63;5.00;;;;;;;10.87;92.21;150387.02;1712550;82;21120;-60
2022/10/05 06:05:53;;;;;;;27.00;5.25;;;;;;;10.92;92.26;150397.41;1706363;82;21104;-59
2022/10/05 06:08:40;;;;;;;21.25;5.17;;;;;;;11.01;92.31;150420.78;1702599;82;21045;-59
2022/10/05 06:11:34;;;;;;;16.82;4.70;;;;;;;11.12;92.06;150449.33;1670137;82;21433;-61
2022/10/05 06:14:05;;;;;;;11.00;4.35;;;;;;;11.23;91.62;150476.59;1705960;82;21073;-60
2022/10/05 06:17:01;;;;;;;9.63;4.55;;;;;;;11.36;91.22;150509.05;1715271;82;21066;-61
2022/10/05 06:19:29;;;;;;;8.68;4.03;;;;;;;11.50;90.77;150542.81;1703336;82;21127;-75
2022/10/05 06:22:21;;;;;;;10.10;4.10;;;;;;;11.63;89.94;150576.61;1674857;82;21086;-77
2022/10/05 06:25:00;;;;;;;11.28;3.45;;;;;;;11.76;89.51;150609.06;1709710;82;21603;-77
2022/10/05 06:27:52;;;;;;;8.38;3.58;;;;;;;11.94;88.86;150654.52;1701927;82;21090;-76
2022/10/05 06:30:20;;;;;;;13.32;4.40;;;;;;;12.09;87.97;150690.95;1708666;82;21096;-76
2022/10/05 06:33:18;;;;;;;8.08;4.00;;;;;;;12.21;87.08;150722.09;1714527;82;21047;-78
2022/10/05 06:36:03;;;;;;;7.20;3.77;;;;;;;12.31;86.69;150746.80;1713201;82;21058;-77
2022/10/05 06:38:53;;;;;;;8.33;3.47;;;;;;;12.46;86.10;150784.47;1709331;82;21513;-76
2022/10/05 06:41:35;;;;;;;5.20;3.87;;;;;;;12.56;85.43;150809.16;1690753;82;21030;-78
2022/10/05 06:44:22;;;;;;;7.97;4.15;;;;;;;12.61;84.92;150823.47;1661654;84;21133;-77
2022/10/05 06:47:29;;;;;;;7.47;3.90;;;;;;;12.65;84.78;150832.58;1598938;86;21044;-79
2022/10/05 06:50:14;;;;;;;8.65;4.05;;;;;;;12.70;84.69;150844.25;1697998;82;21521;-76
2022/10/05 06:53:09;;;;;;;10.00;3.65;;;;;;;12.82;84.52;150875.45;1704992;82;21250;-75
2022/10/05 06:56:00;;;;;;;7.53;3.65;;;;;;;12.98;84.32;150914.47;1698578;82;21458;-78
2022/10/05 06:58:56;;;;;;;8.00;4.08;;;;;;;13.23;83.89;150976.86;1705576;82;21061;-77
2022/10/05 07:01:32;;;;;;;8.65;4.28;;;;;;;13.38;82.76;151015.89;1693057;82;21059;-77
2022/10/05 07:04:11;;;;;;;11.33;3.70;;;;;;;13.45;82.05;151034.13;1700924;82;21040;-76
2022/10/05 07:06:47;;;;;;;8.63;3.40;;;;;;;13.52;81.85;151051.03;1705944;82;21342;-74
2022/10/05 07:09:40;;;;;;;10.65;3.75;;;;;;;13.65;81.37;151083.55;1697398;82;21138;-76
2022/10/05 07:12:35;;;;;;;8.35;3.40;;;;;;;13.79;80.58;151117.33;1703510;82;21205;-75
2022/10/05 07:15:16;;;;;;;13.48;3.83;;;;;;;13.95;80.10;151157.69;1704016;82;21048;-77
2022/10/05 07:18:01;;;;;;;10.70;3.52;;;;;;;14.10;79.63;151195.41;1699362;82;21130;-77
2022/10/05 07:20:46;;;;;;;5.83;2.85;;;;;;;14.25;78.77;151233.13;1693761;82;21187;-78
2022/10/05 07:23:28;;;;;;;9.70;3.33;;;;;;;14.49;76.80;151294.30;1660185;82;21031;-74
2022/10/05 07:26:28;;;;;;;4.90;2.90;;;;;;;14.49;76.80;151294.30;1705959;81;21773;-74
2022/10/05 07:29:11;;;;;;;7.20;3.02;;;;;;;14.58;76.12;151316.38;1667610;83;21245;-79
2022/10/05 07:32:05;;;;;;;7.65;2.90;;;;;;;14.69;75.69;151343.72;1680119;82;21073;-76
2022/10/05 07:34:56;;;;;;;6.95;3.12;;;;;;;14.80;74.92;151372.41;1702734;82;21899;-77
2022/10/05 07:40:41;;;;;;;7.60;3.08;;;;;;;14.98;73.19;151416.69;1704421;81;21080;-78
2022/10/05 07:43:50;;;;;;;4.33;2.90;;;;;;;15.03;72.91;151429.69;1693029;82;21049;-75
2022/10/05 07:46:29;;;;;;;5.72;2.83;;;;;;;15.10;72.76;151447.91;1705490;82;21095;-73
2022/10/05 07:49:27;;;;;;;9.78;2.90;;;;;;;15.20;72.66;151471.36;1680670;82;21128;-77
2022/10/05 07:51:59;;;;;;;11.57;3.27;;;;;;;15.29;72.42;151496.09;1695866;82;21051;-75
2022/10/05 07:55:05;;;;;;;4.60;2.90;;;;;;;15.39;71.79;151520.84;1693950;82;21080;-78
2022/10/05 07:57:39;;;;;;;3.58;2.50;;;;;;;15.47;71.16;151541.66;1692013;82;21134;-82
2022/10/05 08:00:19;;;;;;;4.70;2.30;;;;;;;15.55;69.75;151559.88;1691872;82;21106;-82
2022/10/05 08:02:54;;;;;;;6.15;2.87;;;;;;;15.60;69.50;151572.94;1695360;82;21121;-77
2022/10/05 08:05:32;;;;;;;8.08;3.12;;;;;;;15.67;68.59;151591.14;1705731;82;21032;-78
2022/10/05 08:08:07;;;;;;;4.28;2.55;;;;;;;15.73;67.98;151606.77;1660583;84;22161;-79
2022/10/05 08:10:43;;;;;;;13.13;3.10;;;;;;;15.81;67.26;151625.03;1697711;81;21043;-80
2022/10/05 08:13:30;;;;;;;11.30;2.98;;;;;;;15.85;67.00;151635.44;1691264;82;21600;-83
2022/10/05 08:16:02;;;;;;;6.10;2.70;;;;;;;15.91;67.14;151651.11;1695117;82;40303;-81
2022/10/05 08:18:55;;;;;;;5.90;2.87;;;;;;;16.00;66.31;151674.53;1704014;82;21583;-82
2022/10/05 08:21:35;;;;;;;8.25;2.30;;;;;;;16.02;66.20;151678.45;1696992;82;21088;-77
2022/10/05 08:24:23;;;;;;;5.78;2.55;;;;;;;16.09;66.36;151695.41;1699453;82;21105;-78
2022/10/05 08:26:58;;;;;;;6.95;2.60;;;;;;;16.18;65.70;151718.84;1693818;82;21099;-78
2022/10/05 08:30:01;;;;;;;4.62;2.62;;;;;;;16.26;65.39;151739.70;1701583;82;21089;-79
2022/10/05 08:32:54;;;;;;;4.45;2.40;;;;;;;16.31;64.86;151752.72;1700163;82;21096;-77
2022/10/05 08:35:44;;;;;;;9.13;2.30;;;;;;;16.39;64.19;151770.95;1688766;81;21575;-75
2022/10/05 08:38:33;;;;;;;7.83;2.67;;;;;;;16.41;63.30;151776.16;1691628;82;21069;-76
2022/10/05 08:41:30;;;;;;;5.87;2.40;;;;;;;16.41;63.60;151776.16;1663176;84;21039;-77
2022/10/05 08:44:37;;;;;;;4.50;2.42;;;;;;;16.47;63.88;151791.83;1666280;84;21213;-76
2022/10/05 08:47:13;;;;;;;;;;;;;;;16.63;63.06;151830.89;1631307;85;21567;-77
2022/10/05 08:50:11;;;;;;;7.67;2.45;;;;;;;16.74;62.20;151860.86;1667593;83;20302;-78
2022/10/05 08:52:59;;;;;;;5.78;2.20;;;;;;;16.79;61.24;151872.59;1668699;83;21053;-77
2022/10/05 08:55:56;;;;;;;7.10;2.80;;;;;;;16.83;61.07;151883.03;1669849;83;21109;-79
2022/10/05 08:58:48;;;;;;;6.90;2.37;;;;;;;16.88;60.45;151894.77;1671457;82;21199;-75
2022/10/05 09:01:23;;;;;;;4.53;2.22;;;;;;;16.92;60.31;151903.91;1666963;83;21090;-76
2022/10/05 09:03:58;;;;;;;14.18;2.50;;;;;;;16.99;59.37;151922.19;1669436;83;21096;-81
2022/10/05 09:07:10;;;;;;;5.37;2.20;;;;;;;17.02;59.27;151930.00;1668739;83;21069;-83
2022/10/05 09:10:07;;;;;;;5.00;2.20;;;;;;;17.10;58.97;151950.84;1674631;83;21052;-65
2022/10/05 09:12:53;;;;;;;7.90;2.47;;;;;;;17.17;58.24;151969.13;1663528;84;21573;-61
2022/10/05 09:16:02;;;;;;;6.35;1.92;;;;;;;17.18;57.21;151971.73;1681942;83;28269;-61
2022/10/05 09:18:58;;;;;;;6.65;1.80;;;;;;;17.22;57.14;151979.55;1668134;83;21105;-60
2022/10/05 09:21:41;;;;;;;6.17;2.00;;;;;;;17.27;56.77;151993.91;1685004;83;21161;-61
2022/10/05 09:24:38;;;;;;;8.55;2.00;;;;;;;17.32;56.87;152005.59;1685926;83;21524;-61
2022/10/05 09:27:15;;;;;;;6.50;1.82;;;;;;;17.36;56.83;152014.75;1691901;82;21209;-61
2022/10/05 09:30:07;;;;;;;6.67;2.22;;;;;;;17.44;56.35;152036.91;1660338;84;21021;-60
2022/10/05 09:32:56;;;;;;;3.33;1.85;;;;;;;17.49;55.72;152048.66;1677128;83;21613;-60
2022/10/05 09:36:00;;;;;;;7.03;2.20;;;;;;;17.43;55.84;152034.31;1671641;84;21511;-60
2022/10/05 09:39:01;;;;;;;6.28;2.30;;;;;;;17.40;56.64;152025.16;1670046;84;21077;-61
2022/10/05 09:41:58;;;;;;;6.62;2.00;;;;;;;17.50;56.05;152049.94;1676754;82;21332;-71
2022/10/05 09:45:05;;;;;;;4.70;1.72;;;;;;;17.59;55.77;152073.44;1684564;84;20961;-76
2022/10/05 09:48:04;;;;;;;11.85;2.25;;;;;;;17.68;54.74;152095.56;1670746;84;21092;-78
2022/10/05 09:50:46;;;;;;;9.55;1.95;;;;;;;17.79;53.79;152122.95;1668685;84;21078;-78
2022/10/05 09:53:41;;;;;;;7.58;2.00;;;;;;;17.79;53.92;152122.95;1675030;84;21041;-74
2022/10/05 09:56:35;;;;;;;9.33;1.95;;;;;;;17.81;54.00;152128.22;1670227;84;21959;-77
2022/10/05 09:59:33;;;;;;;4.12;1.80;;;;;;;17.87;53.49;152143.84;1684161;84;21072;-77
2022/10/05 10:02:43;;;;;;;6.37;1.95;;;;;;;17.93;53.38;152158.20;1682169;83;21120;-77
2022/10/05 10:05:49;;;;;;;3.60;1.98;;;;;;;17.94;52.16;152160.81;1681070;83;21064;-77
2022/10/05 10:08:36;;;;;;;6.15;2.00;;;;;;;17.96;51.91;152167.31;1676678;83;21537;-79
2022/10/05 10:11:37;;;;;;;7.22;3.27;;;;;;;18.01;52.13;152180.39;1666092;84;21051;-77
2022/10/05 10:14:27;;;;;;;3.98;2.02;;;;;;;18.03;51.58;152184.31;1667329;84;21128;-77
2022/10/05 10:17:35;;;;;;;2.17;1.45;;;;;;;18.13;50.10;152210.44;1674988;84;21446;-78
2022/10/05 10:20:50;;;;;;;12.33;1.65;;;;;;;18.12;48.39;152206.50;1662400;84;21440;-77
2022/10/05 10:23:53;;;;;;;5.50;1.80;;;;;;;18.04;48.63;152188.25;1666975;84;21073;-78
2022/10/05 10:26:49;;;;;;;2.12;1.40;;;;;;;18.09;49.13;152198.69;1663759;84;21253;-77
2022/10/05 10:29:56;;;;;;;3.70;1.15;;;;;;;18.14;46.82;152211.72;1668910;84;21064;-76
2022/10/05 10:32:48;;;;;;;;;;;;;;;18.20;45.14;152226.08;1684888;82;21000;-77
2022/10/05 10:35:34;;;;;;;5.62;1.75;;;;;;;18.30;45.88;152253.47;1673819;82;20240;-77
2022/10/05 10:38:36;;;;;;;2.50;1.30;;;;;;;18.45;46.29;152289.97;1666756;84;21073;-77
2022/10/05 10:41:27;;;;;;;2.83;1.10;;;;;;;18.60;45.14;152329.13;1664809;83;21824;-78
2022/10/05 10:44:40;;;;;;;10.68;1.80;;;;;;;18.67;43.18;152344.77;1694257;83;21033;-76
2022/10/05 10:47:36;;;;;;;3.10;1.50;;;;;;;18.73;44.12;152360.47;1709824;83;21136;-76
2022/10/05 10:50:33;;;;;;;5.30;1.70;;;;;;;18.74;45.05;152364.36;1698330;83;21446;-78
2022/10/05 10:54:01;;;;;;;8.65;1.72;;;;;;;18.57;45.88;152321.31;1707579;83;21103;-77
2022/10/05 10:56:55;;;;;;;3.90;1.45;;;;;;;18.49;46.11;152300.44;1697362;81;21211;-77
2022/10/05 11:00:08;;;;;;;4.47;1.50;;;;;;;18.49;45.63;152299.12;1693980;83;21001;-78
2022/10/05 11:03:03;;;;;;;3.40;1.47;;;;;;;18.52;45.42;152308.27;1705110;83;21068;-77
2022/10/05 11:06:06;;;;;;;2.92;1.10;;;;;;;18.55;44.89;152316.09;1695269;83;21436;-77
2022/10/05 11:08:51;;;;;;;3.05;1.30;;;;;;;18.54;44.17;152313.48;1655512;83;21079;-78
2022/10/05 11:11:50;;;;;;;3.50;1.33;;;;;;;18.54;44.03;152313.48;1700297;83;21289;-76
2022/10/05 11:14:36;;;;;;;4.83;1.60;;;;;;;18.57;43.83;152320.03;1703758;83;21002;-77
2022/10/05 11:17:33;;;;;;;5.60;1.42;;;;;;;18.56;44.07;152318.70;1707134;82;21065;-79
2022/10/05 11:20:33;;;;;;;4.05;1.50;;;;;;;18.53;43.66;152310.88;1704735;83;21129;-76
2022/10/05 11:23:38;;;;;;;6.03;1.70;;;;;;;18.50;42.77;152303.06;1637440;86;21735;-76
2022/10/05 11:26:45;;;;;;;5.10;1.40;;;;;;;18.46;42.89;152292.62;1685604;82;21199;-78
2022/10/05 11:30:05;;;;;;;5.33;1.90;;;;;;;18.39;43.23;152274.33;1701775;83;21509;-61
2022/10/05 11:33:23;;;;;;;5.78;1.70;;;;;;;18.31;43.57;152256.08;1715712;83;21039;-63
2022/10/05 11:36:15;;;;;;;4.78;1.40;;;;;;;18.25;43.65;152240.44;1717840;83;21318;-61
2022/10/05 11:39:20;;;;;;;4.33;1.50;;;;;;;18.16;43.89;152216.92;1712135;83;21032;-63
2022/10/05 11:42:04;;;;;;;3.50;1.70;;;;;;;18.12;44.47;152206.50;1699219;83;21447;-62
2022/10/05 11:45:07;;;;;;;2.77;1.50;;;;;;;18.11;44.02;152203.89;1656899;84;21125;-62
2022/10/05 11:47:59;;;;;;;3.67;1.70;;;;;;;18.12;43.71;152206.50;1662346;84;21541;-61
2022/10/05 11:50:47;;;;;;;5.62;1.55;;;;;;;18.17;44.05;152219.53;1707451;82;21128;-61
2022/10/05 11:53:44;;;;;;;3.72;1.47;;;;;;;18.25;43.86;152240.44;1700090;82;21214;-60
2022/10/05 11:56:31;;;;;;;2.27;1.37;;;;;;;18.31;43.28;152256.08;1699859;82;21101;-60
2022/10/05 11:59:22;;;;;;;2.22;1.30;;;;;;;18.31;42.92;152256.08;1694114;82;21177;-74
2022/10/05 12:02:46;;;;;;;5.53;1.40;;;;;;;18.36;43.14;152266.50;1704165;82;21565;-74
2022/10/05 12:05:21;;;;;;;6.90;1.65;;;;;;;18.48;42.66;152297.84;1693310;82;21758;-75
2022/10/05 12:08:15;;;;;;;4.42;1.20;;;;;;;18.66;42.65;152342.16;1699641;82;21074;-76
2022/10/05 12:11:40;;;;;;;6.47;1.82;;;;;;;18.75;42.03;152366.97;1663329;84;21000;-74
2022/10/05 12:14:44;;;;;;;5.42;1.40;;;;;;;18.81;42.04;152380.05;1662270;85;21064;-75
2022/10/05 12:17:32;;;;;;;2.62;1.30;;;;;;;18.84;42.05;152389.16;1674544;85;21596;-75
2022/10/05 12:20:19;;;;;;;7.03;1.30;;;;;;;18.83;41.43;152385.27;1665132;85;21152;-74
2022/10/05 12:22:52;;;;;;;3.77;1.10;;;;;;;18.76;41.32;152369.58;1668085;85;21088;-75
2022/10/05 12:25:39;;;;;;;3.27;1.35;;;;;;;18.69;41.71;152350.03;1660194;84;21213;-74
2022/10/05 12:28:12;;;;;;;7.87;1.50;;;;;;;18.66;42.07;152342.16;1669736;85;21108;-75
2022/10/05 12:31:12;;;;;;;9.18;1.60;;;;;;;18.59;42.16;152325.23;1702439;82;21055;-73
2022/10/05 12:34:04;;;;;;;6.78;1.60;;;;;;;18.49;42.59;152300.44;1713582;82;21061;-75
2022/10/05 12:36:39;;;;;;;4.70;1.62;;;;;;;18.40;42.85;152276.94;1710663;82;21049;-75
2022/10/05 12:39:18;;;;;;;2.65;1.17;;;;;;;18.36;42.83;152266.50;1691403;82;21107;-73
2022/10/05 12:42:11;;;;;;;3.60;1.30;;;;;;;18.29;41.77;152250.86;1694276;82;21109;-74
2022/10/05 12:44:47;;;;;;;12.03;1.52;;;;;;;18.23;41.63;152235.17;1695712;82;21548;-73
2022/10/05 12:47:48;;;;;;;3.15;1.50;;;;;;;18.14;42.11;152211.72;1697902;82;21093;-74
2022/10/05 12:50:26;;;;;;;4.70;1.75;;;;;;;18.12;42.48;152206.50;1687636;84;21056;-75
2022/10/05 12:53:27;;;;;;;1.98;1.22;;;;;;;18.13;42.75;152209.11;1708222;81;21422;-74
2022/10/05 12:56:05;;;;;;;10.53;1.45;;;;;;;18.15;42.48;152214.31;1704942;82;21558;-75
2022/10/05 12:59:01;;;;;;;4.72;1.40;;;;;;;18.15;42.24;152214.31;1697600;82;21055;-74
2022/10/05 13:02:04;;;;;;;3.52;1.30;;;;;;;18.11;42.10;152203.89;1698047;82;21512;-72
2022/10/05 13:04:39;;;;;;;3.15;1.30;;;;;;;18.07;42.20;152193.47;1644175;84;21128;-74
2022/10/05 13:07:19;;;;;;;;;;;;;;;18.08;42.29;152197.36;1704764;82;21204;-72